Time;durP1;ratioP1;P1;durP2;ratioP2;P2;SDS_P1;SDS_P2;PMS_P1;PMS_P2;Temp;Humidity;BMP_temperature;BMP_pressure;BME280_temperature;BME280_humidity;BME280_pressure;Samples;Min_cycle;Max_cycle;Signal;HPM_P1;HPM_P2
2023/08/13 00:02:25;;;;;;;;;;;22.90;76.40;;;;;;4154610;28;20470;-47
2023/08/13 00:05:06;;;;;;;;;;;22.80;76.40;;;;;;4154617;28;20074;-47
2023/08/13 00:07:47;;;;;;;;;;;22.80;76.30;;;;;;4154421;28;20371;-45
2023/08/13 00:10:27;;;;;;;;;;;22.80;76.30;;;;;;4154925;28;20024;-47
2023/08/13 00:13:10;;;;;;;;;;;22.80;76.30;;;;;;4154703;28;19932;-45
2023/08/13 00:15:51;;;;;;;;;;;22.80;76.20;;;;;;4126197;28;19936;-45
2023/08/13 00:18:34;;;;;;;;;;;22.80;76.20;;;;;;4138589;28;19979;-45
2023/08/13 00:21:14;;;;;;;;;;;22.80;76.20;;;;;;4138366;28;19936;-48
2023/08/13 00:23:55;;;;;;;;;;;22.80;76.20;;;;;;4142923;28;19932;-45
2023/08/13 00:26:36;;;;;;;;;;;22.80;76.20;;;;;;4141332;28;19936;-49
2023/08/13 00:29:17;;;;;;;;;;;22.80;76.20;;;;;;4154259;28;19936;-43
2023/08/13 00:31:58;;;;;;;;;;;22.80;76.10;;;;;;4163539;28;20407;-45
2023/08/13 00:34:40;;;;;;;;;;;22.80;76.20;;;;;;4139909;28;19936;-47
2023/08/13 00:37:20;;;;;;;;;;;22.80;76.10;;;;;;4137352;28;19942;-45
2023/08/13 00:40:02;;;;;;;;;;;22.70;76.00;;;;;;4158907;28;20416;-48
2023/08/13 00:42:43;;;;;;;;;;;22.70;76.10;;;;;;4170508;28;20403;-43
2023/08/13 00:45:24;;;;;;;;;;;22.70;76.10;;;;;;4114968;28;19932;-41
2023/08/13 00:48:06;;;;;;;;;;;22.70;76.00;;;;;;4156042;28;20403;-42
2023/08/13 00:50:48;;;;;;;;;;;22.70;76.10;;;;;;4143003;28;19936;-41
2023/08/13 00:53:29;;;;;;;;;;;22.70;76.00;;;;;;4154023;28;20308;-42
2023/08/13 00:56:10;;;;;;;;;;;22.70;76.10;;;;;;4144571;28;19936;-41
2023/08/13 00:58:51;;;;;;;;;;;22.70;76.00;;;;;;4157187;28;20006;-41
2023/08/13 01:01:32;;;;;;;;;;;22.70;75.90;;;;;;4168422;28;19932;-41
2023/08/13 01:04:13;;;;;;;;;;;22.70;75.90;;;;;;4156177;28;20433;-42
2023/08/13 01:06:59;;;;;;;;;;;22.70;75.90;;;;;;4154220;28;19940;-40
2023/08/13 01:09:44;;;;;;;;;;;22.70;75.90;;;;;;4137494;28;20031;-40
2023/08/13 01:12:29;;;;;;;;;;;22.60;75.90;;;;;;4148616;28;19975;-40
2023/08/13 01:15:14;;;;;;;;;;;22.60;75.90;;;;;;4167656;28;19932;-41
2023/08/13 01:17:56;;;;;;;;;;;22.60;75.90;;;;;;4141540;28;19936;-43
2023/08/13 01:20:38;;;;;;;;;;;22.60;75.90;;;;;;4157248;28;20291;-43
2023/08/13 01:23:20;;;;;;;;;;;22.60;75.90;;;;;;4141105;28;19933;-40
2023/08/13 01:26:04;;;;;;;;;;;22.60;75.90;;;;;;4132604;28;19940;-40
2023/08/13 01:28:49;;;;;;;;;;;22.60;75.90;;;;;;4144921;28;19936;-40
2023/08/13 01:31:32;;;;;;;;;;;22.60;76.70;;;;;;4144274;28;19936;-42
2023/08/13 01:34:13;;;;;;;;;;;22.60;75.80;;;;;;4140609;28;19952;-42
2023/08/13 01:36:55;;;;;;;;;;;22.60;76.70;;;;;;4156294;28;19932;-42
2023/08/13 01:39:37;;;;;;;;;;;22.60;75.90;;;;;;4156228;28;19934;-41
2023/08/13 01:42:18;;;;;;;;;;;22.50;75.80;;;;;;4164546;28;19931;-41
2023/08/13 01:44:59;;;;;;;;;;;22.50;76.70;;;;;;4154141;28;20464;-41
2023/08/13 01:47:40;;;;;;;;;;;22.50;75.80;;;;;;4154277;28;20055;-40
2023/08/13 01:50:21;;;;;;;;;;;22.50;75.90;;;;;;4156855;28;20407;-41
2023/08/13 01:53:02;;;;;;;;;;;22.50;75.90;;;;;;4156517;28;20066;-40
2023/08/13 01:55:44;;;;;;;;;;;22.50;75.90;;;;;;4143793;28;19936;-40
2023/08/13 01:58:25;;;;;;;;;;;22.50;75.90;;;;;;4144114;28;19978;-39
2023/08/13 02:01:06;;;;;;;;;;;22.50;76.00;;;;;;4144451;28;19936;-40
2023/08/13 02:03:47;;;;;;;;;;;22.40;76.00;;;;;;4139878;28;19932;-39
2023/08/13 02:06:30;;;;;;;;;;;22.40;76.00;;;;;;4155217;28;20402;-40
2023/08/13 02:09:11;;;;;;;;;;;22.40;76.10;;;;;;4143868;28;19998;-41
2023/08/13 02:11:54;;;;;;;;;;;22.40;76.10;;;;;;4146356;28;19932;-41
2023/08/13 02:14:35;;;;;;;;;;;22.40;76.00;;;;;;4140326;28;19986;-39
2023/08/13 02:17:16;;;;;;;;;;;22.40;76.10;;;;;;4143200;28;19936;-43
2023/08/13 02:19:57;;;;;;;;;;;22.40;76.10;;;;;;4155620;28;20026;-43
2023/08/13 02:22:37;;;;;;;;;;;22.40;76.10;;;;;;4142172;28;20437;-43
2023/08/13 02:25:18;;;;;;;;;;;22.40;76.20;;;;;;4143883;28;19936;-43
2023/08/13 02:28:01;;;;;;;;;;;22.40;76.20;;;;;;4144257;28;19948;-44
2023/08/13 02:30:42;;;;;;;;;;;22.40;76.20;;;;;;4156335;28;20346;-47
2023/08/13 02:33:22;;;;;;;;;;;22.40;76.20;;;;;;4155011;28;20381;-44
2023/08/13 02:36:04;;;;;;;;;;;22.40;76.20;;;;;;4155273;28;20011;-47
2023/08/13 02:38:45;;;;;;;;;;;22.40;76.20;;;;;;4141108;28;19944;-42
2023/08/13 02:41:26;;;;;;;;;;;22.30;76.20;;;;;;4155835;28;20348;-42
2023/08/13 02:44:08;;;;;;;;;;;22.30;76.30;;;;;;4123799;28;19932;-40
2023/08/13 02:46:49;;;;;;;;;;;22.30;76.30;;;;;;4153834;28;19936;-40
2023/08/13 02:49:30;;;;;;;;;;;22.30;76.30;;;;;;4153161;28;19932;-41
2023/08/13 02:52:10;;;;;;;;;;;22.30;76.30;;;;;;4143178;28;19936;-40
2023/08/13 02:54:52;;;;;;;;;;;22.30;76.30;;;;;;4156055;28;20026;-40
2023/08/13 02:57:32;;;;;;;;;;;22.30;76.40;;;;;;4155452;28;19932;-41
2023/08/13 03:00:16;;;;;;;;;;;22.30;76.50;;;;;;4154956;28;20067;-40
2023/08/13 03:02:57;;;;;;;;;;;22.30;76.50;;;;;;4143043;28;20013;-39
2023/08/13 03:05:37;;;;;;;;;;;22.30;76.50;;;;;;4150543;28;20340;-39
2023/08/13 03:08:18;;;;;;;;;;;22.30;76.60;;;;;;4141046;28;20407;-39
2023/08/13 03:10:59;;;;;;;;;;;22.30;76.70;;;;;;4142327;28;19932;-39
2023/08/13 03:13:39;;;;;;;;;;;22.30;76.60;;;;;;4128306;28;19937;-40
2023/08/13 03:16:22;;;;;;;;;;;22.30;76.70;;;;;;4155053;28;19932;-39
2023/08/13 03:19:04;;;;;;;;;;;22.30;76.70;;;;;;4140792;28;19933;-40
2023/08/13 03:21:44;;;;;;;;;;;22.30;76.80;;;;;;4123759;28;19937;-40
2023/08/13 03:24:25;;;;;;;;;;;22.20;76.70;;;;;;4127590;28;19933;-40
2023/08/13 03:27:06;;;;;;;;;;;22.20;76.80;;;;;;4139221;28;19940;-39
2023/08/13 03:29:47;;;;;;;;;;;22.20;76.80;;;;;;4153601;28;19940;-40
2023/08/13 03:32:30;;;;;;;;;;;22.20;76.90;;;;;;4142916;28;19935;-40
2023/08/13 03:35:10;;;;;;;;;;;22.20;77.80;;;;;;4145766;28;20026;-47
2023/08/13 03:37:51;;;;;;;;;;;22.20;77.00;;;;;;4155088;28;19933;-45
2023/08/13 03:40:32;;;;;;;;;;;22.20;77.00;;;;;;4154749;28;19935;-44
2023/08/13 03:43:13;;;;;;;;;;;22.20;77.10;;;;;;4181751;28;20296;-43
2023/08/13 03:45:54;;;;;;;;;;;22.20;77.20;;;;;;4142654;28;20422;-48
2023/08/13 03:48:36;;;;;;;;;;;22.20;77.30;;;;;;4140042;28;19936;-46
2023/08/13 03:51:17;;;;;;;;;;;22.20;77.20;;;;;;4138739;28;20060;-44
2023/08/13 03:53:58;;;;;;;;;;;22.20;77.30;;;;;;4145987;28;19932;-40
2023/08/13 03:56:43;;;;;;;;;;;22.20;77.30;;;;;;4142135;28;20104;-40
2023/08/13 03:59:24;;;;;;;;;;;22.10;77.30;;;;;;4153370;28;20004;-40
2023/08/13 04:02:04;;;;;;;;;;;22.10;77.30;;;;;;4153455;28;20022;-40
2023/08/13 04:04:46;;;;;;;;;;;22.10;77.40;;;;;;4142432;28;19932;-39
2023/08/13 04:07:27;;;;;;;;;;;22.10;77.40;;;;;;4142233;28;20071;-39
2023/08/13 04:10:08;;;;;;;;;;;22.10;77.40;;;;;;4138551;28;20007;-39
2023/08/13 04:12:49;;;;;;;;;;;22.10;77.50;;;;;;4138843;28;20111;-39
2023/08/13 04:15:30;;;;;;;;;;;22.10;77.50;;;;;;4150220;28;19932;-39
2023/08/13 04:18:12;;;;;;;;;;;22.10;77.50;;;;;;4153501;28;20044;-39
2023/08/13 04:20:54;;;;;;;;;;;22.10;77.60;;;;;;4128233;28;19936;-39
2023/08/13 04:23:35;;;;;;;;;;;22.10;77.60;;;;;;4147883;28;19983;-39
2023/08/13 04:26:16;;;;;;;;;;;22.10;77.60;;;;;;4170112;28;19932;-39
2023/08/13 04:28:57;;;;;;;;;;;22.10;77.60;;;;;;4157274;28;20507;-40
2023/08/13 04:31:38;;;;;;;;;;;22.00;78.50;;;;;;4154806;28;19935;-39
2023/08/13 04:34:20;;;;;;;;;;;22.00;77.60;;;;;;4125531;28;19940;-44
2023/08/13 04:37:02;;;;;;;;;;;22.00;77.60;;;;;;4147589;28;19932;-43
2023/08/13 04:39:43;;;;;;;;;;;22.00;78.50;;;;;;4136806;28;19936;-44
2023/08/13 04:42:24;;;;;;;;;;;22.00;77.60;;;;;;4137022;28;19933;-44
2023/08/13 04:45:05;;;;;;;;;;;22.00;77.70;;;;;;4135857;28;19941;-43
2023/08/13 04:47:47;;;;;;;;;;;22.00;77.70;;;;;;4140842;28;19968;-44
2023/08/13 04:50:29;;;;;;;;;;;22.00;77.80;;;;;;4146777;28;19933;-45
2023/08/13 04:53:11;;;;;;;;;;;22.00;77.80;;;;;;4144021;28;20288;-43
2023/08/13 04:55:52;;;;;;;;;;;22.00;77.80;;;;;;4136392;28;19960;-46
2023/08/13 04:58:33;;;;;;;;;;;22.00;77.90;;;;;;4141584;28;20289;-46
2023/08/13 05:01:14;;;;;;;;;;;21.90;77.90;;;;;;4141692;28;20323;-47
2023/08/13 05:03:59;;;;;;;;;;;21.90;78.80;;;;;;4141319;28;19936;-46
2023/08/13 05:06:43;;;;;;;;;;;21.90;77.90;;;;;;4157981;28;19932;-45
2023/08/13 05:09:25;;;;;;;;;;;21.90;77.90;;;;;;4170275;28;20017;-43
2023/08/13 05:12:07;;;;;;;;;;;21.90;78.00;;;;;;4167955;28;19936;-40
2023/08/13 05:14:49;;;;;;;;;;;21.90;78.00;;;;;;4140464;28;25414;-39
2023/08/13 05:17:31;;;;;;;;;;;21.90;78.00;;;;;;4140227;28;19932;-40
2023/08/13 05:20:12;;;;;;;;;;;21.90;78.00;;;;;;4142042;28;19932;-40
2023/08/13 05:22:54;;;;;;;;;;;21.90;78.10;;;;;;4145038;28;20314;-41
2023/08/13 05:25:38;;;;;;;;;;;21.90;78.10;;;;;;4153906;28;20311;-39
2023/08/13 05:28:20;;;;;;;;;;;21.90;78.20;;;;;;4141884;28;19936;-40
2023/08/13 05:31:03;;;;;;;;;;;21.90;79.10;;;;;;4153153;28;20402;-40
2023/08/13 05:33:45;;;;;;;;;;;21.90;78.30;;;;;;4136433;28;19935;-40
2023/08/13 05:36:26;;;;;;;;;;;21.90;78.60;;;;;;4150826;28;19947;-40
2023/08/13 05:39:09;;;;;;;;;;;21.90;78.80;;;;;;4137843;28;20770;-43
2023/08/13 05:41:55;;;;;;;;;;;21.90;78.80;;;;;;4164858;28;19974;-41
2023/08/13 05:44:36;;;;;;;;;;;21.90;79.60;;;;;;4156998;28;19936;-40
2023/08/13 05:47:16;;;;;;;;;;;21.90;78.70;;;;;;4155174;28;19931;-40
2023/08/13 05:49:57;;;;;;;;;;;21.90;78.60;;;;;;4156410;28;20388;-40
2023/08/13 05:52:38;;;;;;;;;;;21.90;78.70;;;;;;4147924;28;19932;-41
2023/08/13 05:55:19;;;;;;;;;;;21.90;78.60;;;;;;4172827;28;20074;-40
2023/08/13 05:58:01;;;;;;;;;;;21.90;78.70;;;;;;4173360;28;19931;-42
2023/08/13 06:00:42;;;;;;;;;;;21.90;78.70;;;;;;4166448;28;19953;-40
2023/08/13 06:03:23;;;;;;;;;;;21.90;78.70;;;;;;4154630;28;19944;-40
2023/08/13 06:06:06;;;;;;;;;;;21.90;78.70;;;;;;4153152;28;20268;-41
2023/08/13 06:08:47;;;;;;;;;;;21.90;78.80;;;;;;4150311;28;19944;-41
2023/08/13 06:11:28;;;;;;;;;;;21.80;78.70;;;;;;4155019;28;20044;-43
2023/08/13 06:14:10;;;;;;;;;;;21.90;78.80;;;;;;4155117;28;19935;-48
2023/08/13 06:16:51;;;;;;;;;;;21.90;78.90;;;;;;4155540;28;19933;-43
2023/08/13 06:19:40;;;;;;;;;;;21.90;78.90;;;;;;4154949;28;19932;-49
2023/08/13 06:22:21;;;;;;;;;;;21.80;78.90;;;;;;4154440;28;20312;-47
2023/08/13 06:25:02;;;;;;;;;;;21.80;79.00;;;;;;4156190;28;19932;-46
2023/08/13 06:27:43;;;;;;;;;;;21.80;79.00;;;;;;4156301;28;19994;-47
2023/08/13 06:30:25;;;;;;;;;;;21.80;79.10;;;;;;4155826;28;20014;-44
2023/08/13 06:33:05;;;;;;;;;;;21.80;79.20;;;;;;4137177;28;20296;-45
2023/08/13 06:35:46;;;;;;;;;;;21.80;79.20;;;;;;4140188;28;19932;-47
2023/08/13 06:38:28;;;;;;;;;;;21.90;80.50;;;;;;4139768;28;19951;-47
2023/08/13 06:41:09;;;;;;;;;;;22.00;80.60;;;;;;4143433;28;19936;-48
2023/08/13 06:43:50;;;;;;;;;;;22.00;80.80;;;;;;4172730;28;19931;-44
2023/08/13 06:46:32;;;;;;;;;;;22.10;81.50;;;;;;4171890;28;19978;-44
2023/08/13 06:49:13;;;;;;;;;;;22.10;80.40;;;;;;4156355;28;19932;-48
2023/08/13 06:51:53;;;;;;;;;;;22.20;80.30;;;;;;4155075;28;19935;-44
2023/08/13 06:54:34;;;;;;;;;;;22.30;80.10;;;;;;4155258;28;20411;-44
2023/08/13 06:57:15;;;;;;;;;;;22.30;79.90;;;;;;4125264;28;20064;-47
2023/08/13 06:59:56;;;;;;;;;;;22.40;79.60;;;;;;4139573;28;19936;-44
2023/08/13 07:02:38;;;;;;;;;;;22.50;79.30;;;;;;4139920;28;20292;-46
2023/08/13 07:05:19;;;;;;;;;;;22.50;79.90;;;;;;4135133;28;19936;-48
2023/08/13 07:07:59;;;;;;;;;;;22.50;78.70;;;;;;4154460;28;19932;-44
2023/08/13 07:10:40;;;;;;;;;;;22.50;78.50;;;;;;4155900;28;19935;-46
2023/08/13 07:13:21;;;;;;;;;;;22.50;78.50;;;;;;4153473;28;20391;-45
2023/08/13 07:16:02;;;;;;;;;;;22.50;78.60;;;;;;4155189;28;19935;-46
2023/08/13 07:18:44;;;;;;;;;;;22.50;78.50;;;;;;4138820;28;19952;-44
2023/08/13 07:21:25;;;;;;;;;;;22.50;78.40;;;;;;4142555;28;19983;-43
2023/08/13 07:24:06;;;;;;;;;;;22.60;78.40;;;;;;4138921;28;19980;-39
2023/08/13 07:26:47;;;;;;;;;;;22.60;78.30;;;;;;4163283;28;19976;-40
2023/08/13 07:29:27;;;;;;;;;;;22.60;78.10;;;;;;4161425;28;19935;-39
2023/08/13 07:32:09;;;;;;;;;;;22.60;78.40;;;;;;4153188;28;19974;-39
2023/08/13 07:34:51;;;;;;;;;;;22.70;78.30;;;;;;4152258;28;19932;-39
2023/08/13 07:37:32;;;;;;;;;;;22.70;78.10;;;;;;4154258;28;19936;-39
2023/08/13 07:40:13;;;;;;;;;;;22.80;78.00;;;;;;4153422;28;19932;-39
2023/08/13 07:42:57;;;;;;;;;;;22.80;77.80;;;;;;4154474;28;19986;-39
2023/08/13 07:45:38;;;;;;;;;;;22.80;77.80;;;;;;4153413;28;20387;-39
2023/08/13 07:48:19;;;;;;;;;;;22.80;77.70;;;;;;4154892;28;19935;-39
2023/08/13 07:51:01;;;;;;;;;;;22.80;77.70;;;;;;4153973;28;19932;-39
2023/08/13 07:53:41;;;;;;;;;;;22.80;77.70;;;;;;4154161;28;19998;-40
2023/08/13 07:56:22;;;;;;;;;;;22.80;77.70;;;;;;4152322;28;19932;-42
2023/08/13 07:59:04;;;;;;;;;;;22.80;77.70;;;;;;4154614;28;20010;-42
2023/08/13 08:01:45;;;;;;;;;;;22.80;77.70;;;;;;4138294;28;20071;-40
2023/08/13 08:04:26;;;;;;;;;;;22.90;77.70;;;;;;4138263;28;19987;-39
2023/08/13 08:07:08;;;;;;;;;;;22.90;77.70;;;;;;4137619;28;19933;-39
2023/08/13 08:09:49;;;;;;;;;;;22.80;77.60;;;;;;4138080;28;19932;-40
2023/08/13 08:12:29;;;;;;;;;;;22.80;77.50;;;;;;4144946;28;19936;-40
2023/08/13 08:15:10;;;;;;;;;;;22.80;77.40;;;;;;4170910;28;20044;-39
2023/08/13 08:17:51;;;;;;;;;;;22.80;77.50;;;;;;4171312;28;19931;-39
2023/08/13 08:20:32;;;;;;;;;;;22.80;77.50;;;;;;4162286;28;20015;-40
2023/08/13 08:23:15;;;;;;;;;;;22.80;77.40;;;;;;4153930;28;19940;-40
2023/08/13 08:25:56;;;;;;;;;;;22.90;77.50;;;;;;4154344;28;19936;-40
2023/08/13 08:28:36;;;;;;;;;;;22.90;77.50;;;;;;4154399;28;20610;-40
2023/08/13 08:31:19;;;;;;;;;;;22.90;77.50;;;;;;4141098;28;19936;-39
2023/08/13 08:33:59;;;;;;;;;;;22.90;77.40;;;;;;4150650;28;20297;-39
2023/08/13 08:36:40;;;;;;;;;;;22.90;78.20;;;;;;4154424;28;20327;-39
2023/08/13 08:39:23;;;;;;;;;;;22.90;77.20;;;;;;4154528;28;20602;-40
2023/08/13 08:42:04;;;;;;;;;;;23.00;77.10;;;;;;4153203;28;20044;-40
2023/08/13 08:44:45;;;;;;;;;;;22.90;77.10;;;;;;4154911;28;19943;-39
2023/08/13 08:47:26;;;;;;;;;;;22.90;77.10;;;;;;4154460;28;20592;-39
2023/08/13 08:50:07;;;;;;;;;;;23.00;77.10;;;;;;4154638;28;20379;-39
2023/08/13 08:52:48;;;;;;;;;;;23.00;77.10;;;;;;4127170;28;19933;-39
2023/08/13 08:55:31;;;;;;;;;;;23.10;77.00;;;;;;4143593;28;19999;-40
2023/08/13 08:58:12;;;;;;;;;;;23.10;76.90;;;;;;4133793;28;19932;-39
2023/08/13 09:00:57;;;;;;;;;;;23.10;77.70;;;;;;4152048;28;20292;-40
2023/08/13 09:03:38;;;;;;;;;;;23.10;76.70;;;;;;4133444;28;19937;-40
2023/08/13 09:06:19;;;;;;;;;;;23.10;76.60;;;;;;4139546;28;19932;-40
2023/08/13 09:09:02;;;;;;;;;;;23.10;76.60;;;;;;4154040;28;19932;-40
2023/08/13 09:11:44;;;;;;;;;;;23.20;76.70;;;;;;4157125;28;19936;-39
2023/08/13 09:14:26;;;;;;;;;;;23.20;76.60;;;;;;4157068;28;19948;-40
2023/08/13 09:17:11;;;;;;;;;;;23.20;76.50;;;;;;4155538;28;20056;-39
2023/08/13 09:19:51;;;;;;;;;;;23.20;76.50;;;;;;4140205;28;19975;-40
2023/08/13 09:22:32;;;;;;;;;;;23.30;76.30;;;;;;4141061;28;20364;-39
2023/08/13 09:25:14;;;;;;;;;;;23.30;76.10;;;;;;4140704;28;19950;-39
2023/08/13 09:27:56;;;;;;;;;;;23.30;75.90;;;;;;4139965;28;19932;-39
2023/08/13 09:30:37;;;;;;;;;;;23.30;75.60;;;;;;4141872;28;19991;-39
2023/08/13 09:33:18;;;;;;;;;;;23.40;75.60;;;;;;4157923;28;20296;-39
2023/08/13 09:35:59;;;;;;;;;;;23.40;75.40;;;;;;4156939;28;19932;-39
2023/08/13 09:38:39;;;;;;;;;;;23.40;75.20;;;;;;4156347;28;20359;-39
2023/08/13 09:41:21;;;;;;;;;;;23.40;75.20;;;;;;4156687;28;19932;-39
2023/08/13 09:44:08;;;;;;;;;;;23.40;75.10;;;;;;4155821;28;20296;-46
2023/08/13 09:46:52;;;;;;;;;;;23.40;76.10;;;;;;4153857;28;19936;-46
2023/08/13 09:49:33;;;;;;;;;;;23.40;75.20;;;;;;4156596;28;19937;-46
2023/08/13 09:52:18;;;;;;;;;;;23.40;75.30;;;;;;4155508;28;20280;-39
2023/08/13 09:55:06;;;;;;;;;;;23.40;75.40;;;;;;4154544;28;19932;-39
2023/08/13 09:57:48;;;;;;;;;;;23.40;75.30;;;;;;4157005;28;19936;-40
2023/08/13 10:00:31;;;;;;;;;;;23.40;75.30;;;;;;4141310;28;19936;-45
2023/08/13 10:03:13;;;;;;;;;;;23.40;75.30;;;;;;4155521;28;20388;-38
2023/08/13 10:05:56;;;;;;;;;;;23.50;75.60;;;;;;4131125;28;20618;-44
2023/08/13 10:08:37;;;;;;;;;;;23.50;75.70;;;;;;4125928;28;19932;-38
2023/08/13 10:11:19;;;;;;;;;;;23.50;75.50;;;;;;4116124;28;20056;-46
2023/08/13 10:13:59;;;;;;;;;;;23.50;75.50;;;;;;4108438;28;19968;-38
2023/08/13 10:16:42;;;;;;;;;;;23.60;75.30;;;;;;4152837;28;19935;-45
2023/08/13 10:19:28;;;;;;;;;;;23.60;75.20;;;;;;4171824;28;19967;-43
2023/08/13 10:22:09;;;;;;;;;;;23.60;75.00;;;;;;4179296;28;19932;-44
2023/08/13 10:24:50;;;;;;;;;;;23.60;74.90;;;;;;4168549;28;20010;-43
2023/08/13 10:27:34;;;;;;;;;;;23.60;74.80;;;;;;4171579;28;20359;-43
2023/08/13 10:30:16;;;;;;;;;;;23.60;74.80;;;;;;4172647;28;19978;-46
2023/08/13 10:33:00;;;;;;;;;;;23.60;74.60;;;;;;4172381;28;19936;-46
2023/08/13 10:35:43;;;;;;;;;;;23.60;74.50;;;;;;4142159;28;20396;-48
2023/08/13 10:38:33;;;;;;;;;;;23.70;74.50;;;;;;4136452;28;19979;-44
2023/08/13 10:41:32;;;;;;;;;;;23.70;74.30;;;;;;4138401;28;19979;-43
2023/08/13 10:44:26;;;;;;;;;;;23.70;74.10;;;;;;4146192;28;19932;-45
2023/08/13 10:47:07;;;;;;;;;;;23.70;74.00;;;;;;4155058;28;19936;-44
2023/08/13 10:49:49;;;;;;;;;;;23.70;75.00;;;;;;4171497;28;19974;-46
2023/08/13 10:52:31;;;;;;;;;;;23.70;74.10;;;;;;4172923;28;20498;-45
2023/08/13 10:55:12;;;;;;;;;;;23.80;74.30;;;;;;4148005;28;19999;-43
2023/08/13 10:58:02;;;;;;;;;;;23.80;74.30;;;;;;4154882;28;19932;-43
2023/08/13 11:00:44;;;;;;;;;;;23.80;74.40;;;;;;4154936;28;20400;-45
2023/08/13 11:03:28;;;;;;;;;;;23.80;74.40;;;;;;4130967;28;20009;-43
2023/08/13 11:06:10;;;;;;;;;;;23.90;74.40;;;;;;4155976;28;20396;-44
2023/08/13 11:08:52;;;;;;;;;;;23.90;74.10;;;;;;4151964;28;20056;-46
2023/08/13 11:11:32;;;;;;;;;;;23.90;73.90;;;;;;4168162;28;19932;-46
2023/08/13 11:14:13;;;;;;;;;;;23.90;73.50;;;;;;4155670;28;19936;-46
2023/08/13 11:16:54;;;;;;;;;;;23.90;73.40;;;;;;4143175;28;19932;-47
2023/08/13 11:19:34;;;;;;;;;;;24.00;73.00;;;;;;4155666;28;19938;-45
2023/08/13 11:22:17;;;;;;;;;;;23.90;73.00;;;;;;4160667;28;20122;-43
2023/08/13 11:24:59;;;;;;;;;;;23.90;73.00;;;;;;4139357;28;19933;-49
2023/08/13 11:27:39;;;;;;;;;;;24.00;73.00;;;;;;4172018;28;19932;-46
2023/08/13 11:30:20;;;;;;;;;;;23.90;73.00;;;;;;4165457;28;19936;-45
2023/08/13 11:33:01;;;;;;;;;;;23.90;73.10;;;;;;4154537;28;19932;-46
2023/08/13 11:35:42;;;;;;;;;;;23.90;73.20;;;;;;4155956;28;19932;-46
2023/08/13 11:38:25;;;;;;;;;;;23.90;73.10;;;;;;4142433;28;19943;-45
2023/08/13 11:41:11;;;;;;;;;;;23.90;73.20;;;;;;4154524;28;19982;-48
2023/08/13 11:43:52;;;;;;;;;;;23.90;73.40;;;;;;4153847;28;20418;-48
2023/08/13 11:46:48;;;;;;;;;;;23.90;73.40;;;;;;4137784;28;20040;-44
2023/08/13 11:49:29;;;;;;;;;;;23.90;73.40;;;;;;4153479;28;19935;-44
2023/08/13 11:52:10;;;;;;;;;;;23.90;73.50;;;;;;4160732;28;19932;-43
2023/08/13 11:54:53;;;;;;;;;;;23.90;74.30;;;;;;4138120;28;19983;-43
2023/08/13 11:57:34;;;;;;;;;;;23.90;73.50;;;;;;4144511;28;19936;-44
2023/08/13 12:00:16;;;;;;;;;;;23.90;73.40;;;;;;4154907;28;20273;-44
2023/08/13 12:02:57;;;;;;;;;;;23.90;73.50;;;;;;4154604;28;19936;-46
2023/08/13 12:05:39;;;;;;;;;;;23.90;73.30;;;;;;4154728;28;20344;-43
2023/08/13 12:08:20;;;;;;;;;;;23.90;73.30;;;;;;4153548;28;19932;-43
2023/08/13 12:11:02;;;;;;;;;;;23.90;73.40;;;;;;4155183;28;20391;-43
2023/08/13 12:13:45;;;;;;;;;;;23.90;73.40;;;;;;4138819;28;19989;-45
2023/08/13 12:16:26;;;;;;;;;;;23.90;73.40;;;;;;4140973;28;19932;-44
2023/08/13 12:19:07;;;;;;;;;;;23.90;73.50;;;;;;4154911;28;20009;-43
2023/08/13 12:21:48;;;;;;;;;;;23.90;73.40;;;;;;4138156;28;19968;-48
2023/08/13 12:24:29;;;;;;;;;;;23.90;73.50;;;;;;4147383;28;19952;-47
2023/08/13 12:27:13;;;;;;;;;;;23.90;73.40;;;;;;4138075;28;20036;-44
2023/08/13 12:29:53;;;;;;;;;;;23.90;73.50;;;;;;4143886;28;20079;-45
2023/08/13 12:32:34;;;;;;;;;;;23.90;73.40;;;;;;4138156;28;20304;-45
2023/08/13 12:35:15;;;;;;;;;;;23.90;73.40;;;;;;4137582;28;19936;-45
2023/08/13 12:37:56;;;;;;;;;;;23.90;73.20;;;;;;4141408;28;20415;-45
2023/08/13 12:40:36;;;;;;;;;;;23.90;73.30;;;;;;4153876;28;20036;-46
2023/08/13 12:43:19;;;;;;;;;;;23.90;73.20;;;;;;4154327;28;19932;-43
2023/08/13 12:45:59;;;;;;;;;;;23.90;73.10;;;;;;4154501;28;19932;-46
2023/08/13 12:48:40;;;;;;;;;;;23.90;72.90;;;;;;4154018;28;19936;-43
2023/08/13 12:51:21;;;;;;;;;;;23.90;73.60;;;;;;4154374;28;19936;-45
2023/08/13 12:54:02;;;;;;;;;;;24.00;72.50;;;;;;4142212;28;19932;-43
2023/08/13 12:56:42;;;;;;;;;;;24.00;72.40;;;;;;4153802;28;19978;-43
2023/08/13 12:59:25;;;;;;;;;;;24.00;72.50;;;;;;4142422;28;19932;-42
2023/08/13 13:02:05;;;;;;;;;;;24.00;72.40;;;;;;4148905;28;20014;-43
2023/08/13 13:04:46;;;;;;;;;;;24.00;72.10;;;;;;4152636;28;19932;-43
2023/08/13 13:07:27;;;;;;;;;;;24.00;71.90;;;;;;4142701;28;19932;-46
2023/08/13 13:10:08;;;;;;;;;;;24.10;71.70;;;;;;4153148;28;19932;-45
2023/08/13 13:12:48;;;;;;;;;;;24.10;71.70;;;;;;4139105;28;20005;-43
2023/08/13 13:15:30;;;;;;;;;;;24.10;71.60;;;;;;4168826;28;19950;-45
2023/08/13 13:18:11;;;;;;;;;;;24.10;71.70;;;;;;4171086;28;19931;-45
2023/08/13 13:20:52;;;;;;;;;;;24.10;71.70;;;;;;4170710;28;20449;-44
2023/08/13 13:23:33;;;;;;;;;;;24.10;71.80;;;;;;4166502;28;20283;-47
2023/08/13 13:26:14;;;;;;;;;;;24.10;72.60;;;;;;4139135;28;19974;-45
2023/08/13 13:28:58;;;;;;;;;;;24.10;71.70;;;;;;4148011;28;19933;-45
2023/08/13 13:31:40;;;;;;;;;;;24.10;71.60;;;;;;4152288;28;20362;-46
2023/08/13 13:34:20;;;;;;;;;;;24.10;72.50;;;;;;4152797;28;20073;-44
2023/08/13 13:37:02;;;;;;;;;;;24.10;71.50;;;;;;4152586;28;19936;-46
2023/08/13 13:39:43;;;;;;;;;;;24.10;71.40;;;;;;4152507;28;20072;-46
2023/08/13 13:42:24;;;;;;;;;;;24.10;72.10;;;;;;4154393;28;19963;-46
2023/08/13 13:45:06;;;;;;;;;;;24.10;71.20;;;;;;4153717;28;19932;-45
2023/08/13 13:47:47;;;;;;;;;;;24.10;71.10;;;;;;4153076;28;19956;-44
2023/08/13 13:50:28;;;;;;;;;;;24.10;72.00;;;;;;4154078;28;19932;-43
2023/08/13 13:53:09;;;;;;;;;;;24.20;71.10;;;;;;4154304;28;19978;-44
2023/08/13 13:56:00;;;;;;;;;;;24.20;71.10;;;;;;4155837;28;22193;-46
2023/08/13 13:58:41;;;;;;;;;;;24.20;71.10;;;;;;4161038;28;19936;-46
2023/08/13 14:01:23;;;;;;;;;;;24.20;71.00;;;;;;4161373;28;19974;-45
2023/08/13 14:04:06;;;;;;;;;;;24.20;71.00;;;;;;4139537;28;19931;-43
2023/08/13 14:06:46;;;;;;;;;;;24.20;71.00;;;;;;4140360;28;19976;-44
2023/08/13 14:09:28;;;;;;;;;;;24.20;71.10;;;;;;4128820;28;19932;-46
2023/08/13 14:12:09;;;;;;;;;;;24.20;71.10;;;;;;4140768;28;20026;-44
2023/08/13 14:14:49;;;;;;;;;;;24.20;71.20;;;;;;4141626;28;20591;-43
2023/08/13 14:17:30;;;;;;;;;;;24.20;71.10;;;;;;4148000;28;19997;-43
2023/08/13 14:20:13;;;;;;;;;;;24.30;71.90;;;;;;4145609;28;20578;-46
2023/08/13 14:22:53;;;;;;;;;;;24.30;71.20;;;;;;4140622;28;19952;-44
2023/08/13 14:25:34;;;;;;;;;;;24.30;70.90;;;;;;4156452;28;19932;-43
2023/08/13 14:28:15;;;;;;;;;;;24.20;70.70;;;;;;4154853;28;19978;-43
2023/08/13 14:30:56;;;;;;;;;;;24.20;70.70;;;;;;4154393;28;20067;-44
2023/08/13 14:33:36;;;;;;;;;;;24.30;70.70;;;;;;4126306;28;19932;-45
2023/08/13 14:36:19;;;;;;;;;;;24.20;70.70;;;;;;4152620;28;20079;-43
2023/08/13 14:39:02;;;;;;;;;;;24.20;70.70;;;;;;4156026;28;19940;-43
2023/08/13 14:41:43;;;;;;;;;;;24.20;70.70;;;;;;4139875;28;19932;-49
2023/08/13 14:44:24;;;;;;;;;;;24.20;70.60;;;;;;4146664;28;20284;-44
2023/08/13 14:47:05;;;;;;;;;;;24.20;70.80;;;;;;4155969;28;20293;-44
2023/08/13 14:49:47;;;;;;;;;;;24.20;71.20;;;;;;4139960;28;19932;-43
2023/08/13 14:52:30;;;;;;;;;;;24.20;71.20;;;;;;4139420;28;19952;-44
2023/08/13 14:55:10;;;;;;;;;;;24.20;71.20;;;;;;4147028;28;19940;-47
2023/08/13 14:57:51;;;;;;;;;;;24.20;71.20;;;;;;4170885;28;19932;-45
2023/08/13 15:00:32;;;;;;;;;;;24.20;71.20;;;;;;4139759;28;19936;-45
2023/08/13 15:03:12;;;;;;;;;;;24.20;71.50;;;;;;4162315;28;20335;-44
2023/08/13 15:05:53;;;;;;;;;;;24.20;71.80;;;;;;4156572;28;19955;-46
2023/08/13 15:08:36;;;;;;;;;;;24.20;71.70;;;;;;4155267;28;19936;-42
2023/08/13 15:11:17;;;;;;;;;;;24.20;71.60;;;;;;4155817;28;19947;-43
2023/08/13 15:13:57;;;;;;;;;;;24.20;71.50;;;;;;4139811;28;19936;-47
2023/08/13 15:16:38;;;;;;;;;;;24.20;71.30;;;;;;4156048;28;19932;-44
2023/08/13 15:19:19;;;;;;;;;;;24.20;71.30;;;;;;4142227;28;19936;-43
2023/08/13 15:22:00;;;;;;;;;;;24.30;71.30;;;;;;4172451;28;19932;-44
2023/08/13 15:24:41;;;;;;;;;;;24.30;71.30;;;;;;4160330;28;19936;-46
2023/08/13 15:27:23;;;;;;;;;;;24.30;71.10;;;;;;4143722;28;19971;-43
2023/08/13 15:30:04;;;;;;;;;;;24.30;70.70;;;;;;4155573;28;20415;-44
2023/08/13 15:32:45;;;;;;;;;;;24.30;70.90;;;;;;4155664;28;20482;-43
2023/08/13 15:35:26;;;;;;;;;;;24.30;70.90;;;;;;4144290;28;20010;-44
2023/08/13 15:38:07;;;;;;;;;;;24.30;70.80;;;;;;4154676;28;19936;-42
2023/08/13 15:40:49;;;;;;;;;;;24.40;70.70;;;;;;4148653;28;19974;-42